createdAt,value
2022-12-22T00:02:01.151Z,2.07
2022-12-22T00:05:31.090Z,2.60
2022-12-22T00:08:51.875Z,2.90
2022-12-22T00:12:13.025Z,1.30
2022-12-22T00:15:35.689Z,1.00
2022-12-22T00:18:56.369Z,1.70
2022-12-22T00:22:39.793Z,2.00
2022-12-22T00:26:00.508Z,1.23
2022-12-22T00:29:22.305Z,1.53
2022-12-22T00:32:42.903Z,1.07
2022-12-22T00:36:03.736Z,3.00
2022-12-22T00:39:31.026Z,3.20
2022-12-22T00:42:51.467Z,1.10
2022-12-22T00:46:12.488Z,1.00
2022-12-22T00:49:33.246Z,0.87
2022-12-22T00:52:54.933Z,0.83
2022-12-22T00:56:15.417Z,0.83
2022-12-22T00:59:36.581Z,0.97
2022-12-22T01:02:57.641Z,2.53
2022-12-22T01:06:20.528Z,2.10
2022-12-22T01:09:41.831Z,1.20
2022-12-22T01:13:02.777Z,0.90
2022-12-22T01:16:23.533Z,1.30
2022-12-22T01:19:44.012Z,1.00
2022-12-22T01:23:04.805Z,1.50
2022-12-22T01:26:29.810Z,2.23
2022-12-22T01:29:51.151Z,2.53
2022-12-22T01:33:12.619Z,2.77
2022-12-22T01:36:33.466Z,3.17
2022-12-22T01:39:54.048Z,3.23
2022-12-22T01:43:15.330Z,3.40
2022-12-22T01:46:47.728Z,3.17
2022-12-22T01:50:08.232Z,3.27
2022-12-22T01:53:33.395Z,3.50
2022-12-22T01:56:54.081Z,3.03
2022-12-22T02:00:14.904Z,3.53
2022-12-22T02:03:40.875Z,4.20
2022-12-22T02:07:02.984Z,3.90
2022-12-22T02:10:41.425Z,3.43
2022-12-22T02:14:30.085Z,3.03
2022-12-22T02:17:57.665Z,3.10
2022-12-22T02:21:28.540Z,2.87
2022-12-22T02:24:54.656Z,3.00
2022-12-22T02:28:15.807Z,2.80
2022-12-22T02:31:36.719Z,2.83
2022-12-22T02:34:58.604Z,2.90
2022-12-22T02:38:39.432Z,3.27
2022-12-22T02:42:09.312Z,2.83
2022-12-22T02:45:43.280Z,2.83
2022-12-22T02:49:10.594Z,3.30
2022-12-22T02:52:43.323Z,3.17
2022-12-22T02:56:05.851Z,2.53
2022-12-22T02:59:27.235Z,2.80
2022-12-22T03:02:48.008Z,3.07
2022-12-22T03:06:09.051Z,2.70
2022-12-22T03:09:29.856Z,2.60
2022-12-22T03:12:50.504Z,2.50
2022-12-22T03:16:11.386Z,2.80
2022-12-22T03:19:31.696Z,2.40
2022-12-22T03:22:52.457Z,2.73
2022-12-22T03:25:54.624Z,3.07
2022-12-22T03:28:56.664Z,2.77
2022-12-22T03:31:58.857Z,2.87
2022-12-22T03:35:00.948Z,2.67
2022-12-22T03:38:03.826Z,2.50
2022-12-22T03:41:06.340Z,3.00
2022-12-22T03:44:26.644Z,3.07
2022-12-22T03:47:28.603Z,2.80
2022-12-22T03:50:30.514Z,3.30
2022-12-22T03:53:32.589Z,3.27
2022-12-22T03:56:34.598Z,2.87
2022-12-22T03:59:36.584Z,3.00
2022-12-22T04:02:38.539Z,2.67
2022-12-22T04:05:40.997Z,2.10
2022-12-22T04:08:43.380Z,3.00
2022-12-22T04:12:04.645Z,2.60
2022-12-22T04:15:07.763Z,2.80
2022-12-22T04:18:09.852Z,2.43
2022-12-22T04:21:11.744Z,2.17
2022-12-22T04:24:14.244Z,2.57
2022-12-22T04:27:16.214Z,2.40
2022-12-22T04:30:18.656Z,2.83
2022-12-22T04:33:20.631Z,3.10
2022-12-22T04:36:23.076Z,2.60
2022-12-22T04:39:25.071Z,2.00
2022-12-22T04:42:27.142Z,2.97
2022-12-22T04:45:29.697Z,2.73
2022-12-22T04:48:32.605Z,2.23
2022-12-22T04:51:34.604Z,2.00
2022-12-22T04:54:36.666Z,1.90
2022-12-22T04:57:40.810Z,1.50
2022-12-22T05:00:44.123Z,1.67
2022-12-22T05:03:47.359Z,1.63
2022-12-22T05:06:49.391Z,2.03
2022-12-22T05:09:51.493Z,2.10
2022-12-22T05:12:56.116Z,2.23
2022-12-22T05:16:10.092Z,1.70
2022-12-22T05:19:12.626Z,2.53
2022-12-22T05:22:14.520Z,3.47
2022-12-22T05:25:17.060Z,4.67
2022-12-22T05:28:19.273Z,3.37
2022-12-22T05:31:22.835Z,4.13
2022-12-22T05:34:25.034Z,3.80
2022-12-22T05:37:26.996Z,4.03
2022-12-22T05:40:28.962Z,3.53
2022-12-22T05:43:30.870Z,4.03
2022-12-22T05:46:32.905Z,3.73
2022-12-22T05:49:34.853Z,3.20
2022-12-22T05:52:37.434Z,3.63
2022-12-22T05:55:39.356Z,3.30
2022-12-22T05:58:41.347Z,2.80
2022-12-22T06:01:43.347Z,2.97
2022-12-22T06:04:45.342Z,2.30
2022-12-22T06:07:47.231Z,2.73
2022-12-22T06:10:49.739Z,2.17
2022-12-22T06:13:51.685Z,2.60
2022-12-22T06:16:53.598Z,2.73
2022-12-22T06:19:55.495Z,2.37
2022-12-22T06:22:57.507Z,2.80
2022-12-22T06:26:01.529Z,3.00
2022-12-22T06:29:03.587Z,2.67
2022-12-22T06:32:05.954Z,3.20
2022-12-22T06:35:09.577Z,2.90
2022-12-22T06:38:11.490Z,2.93
2022-12-22T06:41:13.631Z,2.03
2022-12-22T06:44:15.764Z,2.00
2022-12-22T06:47:18.226Z,1.20
2022-12-22T06:50:20.112Z,1.00
2022-12-22T06:53:22.692Z,0.80
2022-12-22T06:56:24.609Z,0.80
2022-12-22T06:59:26.673Z,1.70
2022-12-22T07:02:28.799Z,1.67
2022-12-22T07:05:32.565Z,1.93
2022-12-22T07:08:34.625Z,2.40
2022-12-22T07:11:37.617Z,2.93
2022-12-22T07:14:39.500Z,2.60
2022-12-22T07:17:42.222Z,2.47
2022-12-22T07:20:44.170Z,2.47
2022-12-22T07:23:46.180Z,2.50
2022-12-22T07:26:48.091Z,2.20
2022-12-22T07:29:50.120Z,2.60
2022-12-22T07:32:52.070Z,2.83
2022-12-22T07:36:07.857Z,2.60
2022-12-22T07:39:10.259Z,2.07
2022-12-22T07:42:31.135Z,2.20
2022-12-22T07:45:34.530Z,1.77
2022-12-22T07:48:54.832Z,1.83
2022-12-22T07:51:58.090Z,1.70
2022-12-22T07:55:00.130Z,1.80
2022-12-22T07:58:02.253Z,2.07
2022-12-22T08:01:04.224Z,1.67
2022-12-22T08:04:07.157Z,2.27
2022-12-22T08:07:09.074Z,2.00
2022-12-22T08:10:12.507Z,2.10
2022-12-22T08:13:15.197Z,1.87
2022-12-22T08:16:18.312Z,1.80
2022-12-22T08:19:20.643Z,1.43
2022-12-22T08:22:26.457Z,2.40
2022-12-22T08:25:28.437Z,1.90
2022-12-22T08:28:33.176Z,1.60
2022-12-22T08:31:35.478Z,1.10
2022-12-22T08:34:37.543Z,1.13
2022-12-22T08:37:43.556Z,1.07
2022-12-22T08:40:46.805Z,1.00
2022-12-22T08:43:49.198Z,0.90
2022-12-22T08:46:53.686Z,0.30
2022-12-22T08:49:55.738Z,0.70
2022-12-22T08:53:23.486Z,0.80
2022-12-22T08:56:31.375Z,1.23
2022-12-22T08:59:33.498Z,0.70
2022-12-22T09:02:36.284Z,0.90
2022-12-22T09:05:39.052Z,0.70
2022-12-22T09:08:40.922Z,0.70
2022-12-22T09:11:43.511Z,0.40
2022-12-22T09:14:45.511Z,0.60
2022-12-22T09:17:48.491Z,0.60
2022-12-22T09:20:55.959Z,0.60
2022-12-22T09:23:58.741Z,0.70
2022-12-22T09:27:03.642Z,0.40
2022-12-22T09:30:06.535Z,0.40
2022-12-22T09:33:08.391Z,0.70
2022-12-22T09:36:13.447Z,0.50
2022-12-22T09:39:16.245Z,0.50
2022-12-22T09:42:20.372Z,1.00
2022-12-22T09:45:22.833Z,0.80
2022-12-22T09:48:36.919Z,0.50
2022-12-22T09:51:48.956Z,1.13
2022-12-22T09:54:51.017Z,1.73
2022-12-22T09:57:56.070Z,2.03
2022-12-22T10:01:01.922Z,2.30
2022-12-22T10:04:17.559Z,1.90
2022-12-22T10:07:32.764Z,1.80
2022-12-22T10:10:34.692Z,2.30
2022-12-22T10:13:37.151Z,2.07
2022-12-22T10:16:39.031Z,4.60
2022-12-22T10:19:41.667Z,2.00
2022-12-22T10:22:52.625Z,2.10
2022-12-22T10:29:23.442Z,2.20
2022-12-22T10:32:25.359Z,2.10
2022-12-22T10:35:27.319Z,2.00
2022-12-22T10:38:32.478Z,2.00
2022-12-22T10:41:43.503Z,1.90
2022-12-22T10:44:47.865Z,1.53
2022-12-22T10:47:57.227Z,2.00
2022-12-22T10:51:00.088Z,6.57
2022-12-22T10:54:02.947Z,3.50
2022-12-22T10:57:39.519Z,2.97
2022-12-22T11:00:42.003Z,2.17
2022-12-22T11:03:44.029Z,2.00
2022-12-22T11:06:46.782Z,2.70
2022-12-22T11:09:49.256Z,2.20
2022-12-22T11:13:22.390Z,1.80
2022-12-22T11:16:32.205Z,1.40
2022-12-22T11:19:46.707Z,1.17
2022-12-22T11:22:56.558Z,1.40
2022-12-22T11:26:08.274Z,1.30
2022-12-22T11:29:12.980Z,1.47
2022-12-22T11:32:41.445Z,1.20
2022-12-22T11:36:07.088Z,1.17
2022-12-22T11:39:18.854Z,0.93
2022-12-22T11:42:53.128Z,1.57
2022-12-22T11:46:14.526Z,0.90
2022-12-22T11:49:45.722Z,1.50
2022-12-22T11:53:25.881Z,1.20
2022-12-22T11:56:33.375Z,1.43
2022-12-22T11:59:43.621Z,1.27
2022-12-22T12:03:21.258Z,1.60
2022-12-22T12:06:36.413Z,1.07
2022-12-22T12:10:04.475Z,1.50
2022-12-22T12:13:36.853Z,1.23
2022-12-22T12:16:49.782Z,1.40
2022-12-22T12:20:22.191Z,1.10
2022-12-22T12:23:56.618Z,1.47
2022-12-22T12:27:22.878Z,1.53
2022-12-22T12:30:40.435Z,2.77
2022-12-22T12:33:59.488Z,1.50
2022-12-22T12:37:03.056Z,1.60
2022-12-22T12:40:17.405Z,2.00
2022-12-22T12:43:19.807Z,1.90
2022-12-22T12:46:40.576Z,1.53
2022-12-22T12:49:42.429Z,1.63
2022-12-22T12:53:11.272Z,1.77
2022-12-22T12:56:13.236Z,2.43
2022-12-22T12:59:55.701Z,2.30
2022-12-22T13:03:02.593Z,16.63
2022-12-22T13:06:07.101Z,7.53
2022-12-22T13:09:48.609Z,7.73
2022-12-22T13:12:48.538Z,1.60
2022-12-22T13:16:02.832Z,1.40
2022-12-22T13:19:11.999Z,1.00
2022-12-22T13:22:14.171Z,1.10
2022-12-22T13:25:16.804Z,1.00
2022-12-22T13:28:20.745Z,1.20
2022-12-22T13:31:32.440Z,1.00
2022-12-22T13:35:11.815Z,1.33
2022-12-22T13:38:33.519Z,2.60
2022-12-22T13:41:35.654Z,2.77
2022-12-22T13:44:38.605Z,4.30
2022-12-22T13:47:43.052Z,2.73
2022-12-22T13:50:54.085Z,2.63
2022-12-22T13:54:15.325Z,2.20
2022-12-22T13:57:20.564Z,2.17
2022-12-22T14:00:28.718Z,2.13
2022-12-22T14:03:58.780Z,2.00
2022-12-22T14:06:55.170Z,1.80
2022-12-22T14:09:58.638Z,40.13
2022-12-22T14:13:03.337Z,31.83
2022-12-22T14:16:06.619Z,15.33
2022-12-22T14:19:10.492Z,4.10
2022-12-22T14:22:17.229Z,1.50
2022-12-22T14:25:29.761Z,1.20
2022-12-22T14:28:43.548Z,1.03
2022-12-22T14:31:55.996Z,0.70
2022-12-22T14:34:58.448Z,0.93
2022-12-22T14:38:03.333Z,1.70
2022-12-22T14:41:11.050Z,1.70
2022-12-22T14:44:39.221Z,1.83
2022-12-22T14:47:41.228Z,1.50
2022-12-22T14:50:49.675Z,2.37
2022-12-22T14:54:00.019Z,2.00
2022-12-22T14:57:15.849Z,1.97
2022-12-22T15:00:25.517Z,1.63
2022-12-22T15:03:39.103Z,1.17
2022-12-22T15:06:43.974Z,1.37
2022-12-22T15:13:20.167Z,1.60
2022-12-22T15:16:23.303Z,1.70
2022-12-22T15:19:32.423Z,4.70
2022-12-22T15:22:34.281Z,3.63
2022-12-22T15:25:36.289Z,4.23
2022-12-22T15:28:38.479Z,8.33
2022-12-22T15:31:41.730Z,15.07
2022-12-22T15:34:44.205Z,11.90
2022-12-22T15:37:46.435Z,7.10
2022-12-22T15:40:48.881Z,3.83
2022-12-22T15:43:59.082Z,3.87
2022-12-22T15:47:01.557Z,1.57
2022-12-22T15:50:04.327Z,1.83
2022-12-22T15:53:07.278Z,1.70
2022-12-22T15:56:17.659Z,0.90
2022-12-22T15:59:23.080Z,1.90
2022-12-22T16:02:27.693Z,2.07
2022-12-22T16:05:30.497Z,4.03
2022-12-22T16:08:37.243Z,4.30
2022-12-22T16:11:39.358Z,4.67
2022-12-22T16:14:49.701Z,5.73
2022-12-22T16:17:53.311Z,7.20
2022-12-22T16:20:56.282Z,6.73
2022-12-22T16:23:58.910Z,12.03
2022-12-22T16:27:03.125Z,4.40
2022-12-22T16:30:05.864Z,5.40
2022-12-22T16:33:12.098Z,4.50
2022-12-22T16:36:14.047Z,6.00
2022-12-22T16:39:16.489Z,4.53
2022-12-22T16:45:38.924Z,4.90
2022-12-22T16:48:47.493Z,3.73
2022-12-22T16:51:53.511Z,3.63
2022-12-22T16:54:55.520Z,2.60
2022-12-22T16:57:58.396Z,2.00
2022-12-22T17:01:00.293Z,2.80
2022-12-22T17:04:06.043Z,2.53
2022-12-22T17:07:09.820Z,2.20
2022-12-22T17:10:16.097Z,3.13
2022-12-22T17:13:18.939Z,3.73
2022-12-22T17:16:23.150Z,2.90
2022-12-22T17:19:25.174Z,2.90
2022-12-22T17:22:29.692Z,2.43
2022-12-22T17:25:31.640Z,1.83
2022-12-22T17:28:34.535Z,1.47
2022-12-22T17:31:36.495Z,2.23
2022-12-22T17:34:38.528Z,2.90
2022-12-22T17:37:40.727Z,3.40
2022-12-22T17:40:43.489Z,3.03
2022-12-22T17:43:46.842Z,2.03
2022-12-22T17:46:49.037Z,2.43
2022-12-22T17:49:50.965Z,2.70
2022-12-22T17:52:52.915Z,1.30
2022-12-22T17:56:10.133Z,1.83
2022-12-22T17:59:12.458Z,3.20
2022-12-22T18:02:22.581Z,2.33
2022-12-22T18:05:34.659Z,1.90
2022-12-22T18:08:36.585Z,1.80
2022-12-22T18:11:45.721Z,1.77
2022-12-22T18:14:49.543Z,1.43
2022-12-22T18:17:53.365Z,1.70
2022-12-22T18:21:07.524Z,1.60
2022-12-22T18:24:19.172Z,1.20
2022-12-22T18:27:22.722Z,1.40
2022-12-22T18:30:29.251Z,1.60
2022-12-22T18:33:31.147Z,2.30
2022-12-22T18:36:34.041Z,2.30
2022-12-22T18:39:36.660Z,1.97
2022-12-22T18:42:38.545Z,1.70
2022-12-22T18:45:40.626Z,1.53
2022-12-22T18:48:43.051Z,1.57
2022-12-22T18:51:45.934Z,1.80
2022-12-22T18:54:48.577Z,1.80
2022-12-22T18:57:51.919Z,1.77
2022-12-22T19:00:55.035Z,1.47
2022-12-22T19:03:59.031Z,1.67
2022-12-22T19:07:00.873Z,3.23
2022-12-22T19:10:02.763Z,2.40
2022-12-22T19:13:08.540Z,1.80
2022-12-22T19:16:13.858Z,1.30
2022-12-22T19:19:20.292Z,1.20
2022-12-22T19:22:22.405Z,2.80
2022-12-22T19:25:28.163Z,1.93
2022-12-22T19:28:36.845Z,2.00
2022-12-22T19:31:38.993Z,1.87
2022-12-22T19:34:41.032Z,1.70
2022-12-22T19:37:42.922Z,1.47
2022-12-22T19:40:45.387Z,1.50
2022-12-22T19:43:47.285Z,1.13
2022-12-22T19:46:49.773Z,1.40
2022-12-22T19:49:51.702Z,1.40
2022-12-22T19:52:55.036Z,1.60
2022-12-22T19:55:57.504Z,1.50
2022-12-22T19:59:00.335Z,1.30
2022-12-22T20:02:02.697Z,1.50
2022-12-22T20:05:10.037Z,1.43
2022-12-22T20:08:15.608Z,2.90
2022-12-22T20:11:19.297Z,1.63
2022-12-22T20:14:23.193Z,1.33
2022-12-22T20:17:25.566Z,1.33
2022-12-22T20:20:32.797Z,1.57
2022-12-22T20:23:38.294Z,1.63
2022-12-22T20:26:40.192Z,1.63
2022-12-22T20:29:42.144Z,1.40
2022-12-22T20:32:44.246Z,1.13
2022-12-22T20:35:48.332Z,1.00
2022-12-22T20:38:52.569Z,1.10
2022-12-22T20:41:56.184Z,1.03
2022-12-22T20:45:02.014Z,1.13
2022-12-22T20:48:06.713Z,1.03
2022-12-22T20:51:13.439Z,0.97
2022-12-22T20:54:16.406Z,0.80
2022-12-22T20:57:19.130Z,0.87
2022-12-22T21:00:28.186Z,6.67
2022-12-22T21:03:30.090Z,6.40
2022-12-22T21:06:38.073Z,2.50
2022-12-22T21:09:41.678Z,1.10
2022-12-22T21:12:44.254Z,1.80
2022-12-22T21:15:49.364Z,1.60
2022-12-22T21:18:52.436Z,1.33
2022-12-22T21:21:54.990Z,1.53
2022-12-22T21:24:57.032Z,1.10
2022-12-22T21:27:59.457Z,0.60
2022-12-22T21:31:02.623Z,0.90
2022-12-22T21:34:04.549Z,0.80
2022-12-22T21:37:10.156Z,0.90
2022-12-22T21:40:26.906Z,1.63
2022-12-22T21:43:29.414Z,1.50
2022-12-22T21:46:31.678Z,1.33
2022-12-22T21:49:36.965Z,1.43
2022-12-22T21:52:38.812Z,1.57
2022-12-22T21:55:41.360Z,1.40
2022-12-22T21:58:43.278Z,1.03
2022-12-22T22:01:45.554Z,1.30
2022-12-22T22:04:54.135Z,1.30
2022-12-22T22:07:58.738Z,0.90
2022-12-22T22:11:01.065Z,0.97
2022-12-22T22:14:03.030Z,0.80
2022-12-22T22:17:04.955Z,0.90
2022-12-22T22:20:09.636Z,0.90
2022-12-22T22:23:13.375Z,1.93
2022-12-22T22:26:15.263Z,2.77
2022-12-22T22:29:17.436Z,3.07
2022-12-22T22:32:19.739Z,2.50
2022-12-22T22:35:23.291Z,2.50
2022-12-22T22:38:25.416Z,2.10
2022-12-22T22:41:29.426Z,1.50
2022-12-22T22:44:31.449Z,1.67
2022-12-22T22:47:33.653Z,1.50
2022-12-22T22:50:35.581Z,1.50
2022-12-22T22:53:37.510Z,1.30
2022-12-22T22:56:39.753Z,1.10
2022-12-22T22:59:42.535Z,1.20
2022-12-22T23:02:45.591Z,1.40
2022-12-22T23:05:47.960Z,1.40
2022-12-22T23:08:53.308Z,1.43
2022-12-22T23:11:55.606Z,1.47
2022-12-22T23:14:57.643Z,1.60
2022-12-22T23:17:59.573Z,1.73
2022-12-22T23:21:03.838Z,1.67
2022-12-22T23:24:06.217Z,1.30
2022-12-22T23:27:08.151Z,1.43
2022-12-22T23:30:10.831Z,1.43
2022-12-22T23:33:12.783Z,1.83
2022-12-22T23:36:15.101Z,1.40
2022-12-22T23:39:17.575Z,1.43
2022-12-22T23:42:19.532Z,1.60
2022-12-22T23:45:22.034Z,0.90
2022-12-22T23:48:23.957Z,1.30
2022-12-22T23:51:27.573Z,1.00
2022-12-22T23:54:30.580Z,1.10
2022-12-22T23:57:32.578Z,1.30
